sensor_id;sensor_type;location;lat;lon;timestamp;P1;durP1;ratioP1;P2;durP2;ratioP2
56893;SDS011;43392;50.078;13.704;2023-02-11T00:00:35;47.45;;;25.50;;
56893;SDS011;43392;50.078;13.704;2023-02-11T00:03:04;50.50;;;25.00;;
56893;SDS011;43392;50.078;13.704;2023-02-11T00:05:31;51.63;;;24.67;;
56893;SDS011;43392;50.078;13.704;2023-02-11T00:07:57;49.15;;;25.85;;
56893;SDS011;43392;50.078;13.704;2023-02-11T00:10:24;45.33;;;24.27;;
56893;SDS011;43392;50.078;13.704;2023-02-11T00:12:50;48.70;;;25.48;;
56893;SDS011;43392;50.078;13.704;2023-02-11T00:15:17;48.40;;;25.27;;
56893;SDS011;43392;50.078;13.704;2023-02-11T00:17:46;49.05;;;25.65;;
56893;SDS011;43392;50.078;13.704;2023-02-11T00:20:13;50.47;;;25.02;;
56893;SDS011;43392;50.078;13.704;2023-02-11T00:22:39;47.90;;;24.48;;
56893;SDS011;43392;50.078;13.704;2023-02-11T00:25:06;47.30;;;25.60;;
56893;SDS011;43392;50.078;13.704;2023-02-11T00:27:33;50.95;;;26.00;;
56893;SDS011;43392;50.078;13.704;2023-02-11T00:30:02;45.72;;;24.33;;
56893;SDS011;43392;50.078;13.704;2023-02-11T00:32:29;47.50;;;25.20;;
56893;SDS011;43392;50.078;13.704;2023-02-11T00:34:57;49.03;;;26.33;;
56893;SDS011;43392;50.078;13.704;2023-02-11T00:37:24;49.30;;;25.92;;
56893;SDS011;43392;50.078;13.704;2023-02-11T00:39:50;51.05;;;27.80;;
56893;SDS011;43392;50.078;13.704;2023-02-11T00:42:17;45.40;;;26.13;;
56893;SDS011;43392;50.078;13.704;2023-02-11T00:44:43;51.65;;;26.10;;
56893;SDS011;43392;50.078;13.704;2023-02-11T00:47:10;48.95;;;25.85;;
56893;SDS011;43392;50.078;13.704;2023-02-11T00:49:37;51.35;;;27.02;;
56893;SDS011;43392;50.078;13.704;2023-02-11T00:52:05;48.92;;;26.40;;
56893;SDS011;43392;50.078;13.704;2023-02-11T00:54:32;48.65;;;25.88;;
56893;SDS011;43392;50.078;13.704;2023-02-11T00:56:59;52.60;;;26.83;;
56893;SDS011;43392;50.078;13.704;2023-02-11T00:59:25;48.20;;;25.48;;
56893;SDS011;43392;50.078;13.704;2023-02-11T01:01:52;53.00;;;27.30;;
56893;SDS011;43392;50.078;13.704;2023-02-11T01:04:18;52.20;;;26.63;;
56893;SDS011;43392;50.078;13.704;2023-02-11T01:06:45;52.28;;;27.92;;
56893;SDS011;43392;50.078;13.704;2023-02-11T01:09:13;49.88;;;27.48;;
56893;SDS011;43392;50.078;13.704;2023-02-11T01:11:39;48.58;;;25.25;;
56893;SDS011;43392;50.078;13.704;2023-02-11T01:14:06;45.70;;;25.55;;
56893;SDS011;43392;50.078;13.704;2023-02-11T01:16:33;51.17;;;26.17;;
56893;SDS011;43392;50.078;13.704;2023-02-11T01:18:59;51.30;;;26.27;;
56893;SDS011;43392;50.078;13.704;2023-02-11T01:21:26;55.08;;;27.60;;
56893;SDS011;43392;50.078;13.704;2023-02-11T01:23:52;50.85;;;27.15;;
56893;SDS011;43392;50.078;13.704;2023-02-11T01:26:20;54.03;;;29.52;;
56893;SDS011;43392;50.078;13.704;2023-02-11T01:28:47;56.05;;;29.15;;
56893;SDS011;43392;50.078;13.704;2023-02-11T01:31:13;49.53;;;26.85;;
56893;SDS011;43392;50.078;13.704;2023-02-11T01:33:40;60.08;;;30.75;;
56893;SDS011;43392;50.078;13.704;2023-02-11T01:36:07;51.17;;;28.02;;
56893;SDS011;43392;50.078;13.704;2023-02-11T01:38:34;55.72;;;30.90;;
56893;SDS011;43392;50.078;13.704;2023-02-11T01:41:01;53.33;;;30.38;;
56893;SDS011;43392;50.078;13.704;2023-02-11T01:43:32;58.75;;;30.45;;
56893;SDS011;43392;50.078;13.704;2023-02-11T01:46:19;60.20;;;30.40;;
56893;SDS011;43392;50.078;13.704;2023-02-11T01:48:52;56.43;;;30.20;;
56893;SDS011;43392;50.078;13.704;2023-02-11T01:53:50;62.72;;;30.70;;
56893;SDS011;43392;50.078;13.704;2023-02-11T01:56:36;57.90;;;30.48;;
56893;SDS011;43392;50.078;13.704;2023-02-11T01:59:27;60.00;;;30.63;;
56893;SDS011;43392;50.078;13.704;2023-02-11T02:01:57;55.15;;;29.85;;
56893;SDS011;43392;50.078;13.704;2023-02-11T02:04:28;57.55;;;30.10;;
56893;SDS011;43392;50.078;13.704;2023-02-11T02:06:59;54.25;;;29.67;;
56893;SDS011;43392;50.078;13.704;2023-02-11T02:09:31;57.53;;;30.80;;
56893;SDS011;43392;50.078;13.704;2023-02-11T02:12:01;57.05;;;30.48;;
56893;SDS011;43392;50.078;13.704;2023-02-11T02:14:30;54.03;;;28.33;;
56893;SDS011;43392;50.078;13.704;2023-02-11T02:16:56;55.40;;;29.92;;
56893;SDS011;43392;50.078;13.704;2023-02-11T02:19:44;53.58;;;28.23;;
56893;SDS011;43392;50.078;13.704;2023-02-11T02:28:54;53.05;;;29.30;;
56893;SDS011;43392;50.078;13.704;2023-02-11T02:31:42;50.00;;;26.48;;
56893;SDS011;43392;50.078;13.704;2023-02-11T02:34:26;55.08;;;28.83;;
56893;SDS011;43392;50.078;13.704;2023-02-11T02:36:59;56.47;;;29.83;;
56893;SDS011;43392;50.078;13.704;2023-02-11T02:39:30;53.35;;;28.90;;
56893;SDS011;43392;50.078;13.704;2023-02-11T02:42:00;51.40;;;29.40;;
56893;SDS011;43392;50.078;13.704;2023-02-11T02:44:27;60.00;;;29.50;;
56893;SDS011;43392;50.078;13.704;2023-02-11T02:46:54;59.45;;;31.27;;
56893;SDS011;43392;50.078;13.704;2023-02-11T02:49:21;55.40;;;30.50;;
56893;SDS011;43392;50.078;13.704;2023-02-11T02:52:08;55.78;;;30.10;;
56893;SDS011;43392;50.078;13.704;2023-02-11T02:54:47;55.75;;;29.02;;
56893;SDS011;43392;50.078;13.704;2023-02-11T02:57:35;54.90;;;29.50;;
56893;SDS011;43392;50.078;13.704;2023-02-11T03:00:12;60.88;;;30.75;;
56893;SDS011;43392;50.078;13.704;2023-02-11T03:02:48;57.05;;;30.85;;
56893;SDS011;43392;50.078;13.704;2023-02-11T03:05:20;52.70;;;28.40;;
56893;SDS011;43392;50.078;13.704;2023-02-11T03:07:54;57.97;;;30.88;;
56893;SDS011;43392;50.078;13.704;2023-02-11T03:10:24;54.42;;;28.52;;
56893;SDS011;43392;50.078;13.704;2023-02-11T03:12:54;56.83;;;29.38;;
56893;SDS011;43392;50.078;13.704;2023-02-11T03:15:22;58.28;;;29.52;;
56893;SDS011;43392;50.078;13.704;2023-02-11T03:17:52;55.53;;;28.92;;
56893;SDS011;43392;50.078;13.704;2023-02-11T03:20:21;59.42;;;29.23;;
56893;SDS011;43392;50.078;13.704;2023-02-11T03:22:49;53.30;;;29.40;;
56893;SDS011;43392;50.078;13.704;2023-02-11T03:25:24;59.58;;;29.30;;
56893;SDS011;43392;50.078;13.704;2023-02-11T03:27:56;52.30;;;30.23;;
56893;SDS011;43392;50.078;13.704;2023-02-11T03:30:28;57.95;;;29.52;;
56893;SDS011;43392;50.078;13.704;2023-02-11T03:33:02;57.33;;;29.75;;
56893;SDS011;43392;50.078;13.704;2023-02-11T03:35:34;54.85;;;27.77;;
56893;SDS011;43392;50.078;13.704;2023-02-11T03:38:10;49.33;;;26.75;;
56893;SDS011;43392;50.078;13.704;2023-02-11T03:40:41;49.38;;;26.85;;
56893;SDS011;43392;50.078;13.704;2023-02-11T03:43:10;47.88;;;26.98;;
56893;SDS011;43392;50.078;13.704;2023-02-11T03:45:42;50.60;;;26.92;;
56893;SDS011;43392;50.078;13.704;2023-02-11T03:48:11;50.38;;;26.40;;
56893;SDS011;43392;50.078;13.704;2023-02-11T03:50:41;50.78;;;26.17;;
56893;SDS011;43392;50.078;13.704;2023-02-11T03:53:11;51.60;;;26.30;;
56893;SDS011;43392;50.078;13.704;2023-02-11T03:55:40;49.70;;;26.30;;
56893;SDS011;43392;50.078;13.704;2023-02-11T03:58:08;48.47;;;25.35;;
56893;SDS011;43392;50.078;13.704;2023-02-11T04:00:36;48.75;;;26.08;;
56893;SDS011;43392;50.078;13.704;2023-02-11T04:03:05;45.92;;;25.15;;
56893;SDS011;43392;50.078;13.704;2023-02-11T04:05:32;49.40;;;24.88;;
56893;SDS011;43392;50.078;13.704;2023-02-11T04:07:58;48.92;;;26.13;;
56893;SDS011;43392;50.078;13.704;2023-02-11T04:10:27;46.42;;;25.60;;
56893;SDS011;43392;50.078;13.704;2023-02-11T04:12:53;42.95;;;25.10;;
56893;SDS011;43392;50.078;13.704;2023-02-11T04:15:20;46.70;;;25.15;;
56893;SDS011;43392;50.078;13.704;2023-02-11T04:17:47;46.97;;;25.33;;
56893;SDS011;43392;50.078;13.704;2023-02-11T04:20:13;48.00;;;25.80;;
56893;SDS011;43392;50.078;13.704;2023-02-11T04:22:40;47.92;;;25.00;;
56893;SDS011;43392;50.078;13.704;2023-02-11T04:25:07;48.05;;;24.77;;
56893;SDS011;43392;50.078;13.704;2023-02-11T04:27:36;48.40;;;24.60;;
56893;SDS011;43392;50.078;13.704;2023-02-11T04:30:03;46.28;;;23.92;;
56893;SDS011;43392;50.078;13.704;2023-02-11T04:32:31;46.17;;;24.30;;
56893;SDS011;43392;50.078;13.704;2023-02-11T04:34:57;42.88;;;23.65;;
56893;SDS011;43392;50.078;13.704;2023-02-11T04:37:24;44.80;;;23.48;;
56893;SDS011;43392;50.078;13.704;2023-02-11T04:39:50;45.22;;;23.63;;
56893;SDS011;43392;50.078;13.704;2023-02-11T04:42:17;45.50;;;23.33;;
56893;SDS011;43392;50.078;13.704;2023-02-11T04:44:45;46.88;;;23.65;;
56893;SDS011;43392;50.078;13.704;2023-02-11T04:47:11;43.85;;;23.85;;
56893;SDS011;43392;50.078;13.704;2023-02-11T04:49:39;45.33;;;23.98;;
56893;SDS011;43392;50.078;13.704;2023-02-11T04:52:06;49.85;;;23.88;;
56893;SDS011;43392;50.078;13.704;2023-02-11T04:54:33;51.70;;;24.67;;
56893;SDS011;43392;50.078;13.704;2023-02-11T04:56:59;47.83;;;26.45;;
56893;SDS011;43392;50.078;13.704;2023-02-11T04:59:26;45.70;;;24.75;;
56893;SDS011;43392;50.078;13.704;2023-02-11T05:01:54;44.67;;;23.77;;
56893;SDS011;43392;50.078;13.704;2023-02-11T05:04:21;45.70;;;23.20;;
56893;SDS011;43392;50.078;13.704;2023-02-11T05:06:48;42.30;;;21.63;;
56893;SDS011;43392;50.078;13.704;2023-02-11T05:09:14;44.45;;;23.48;;
56893;SDS011;43392;50.078;13.704;2023-02-11T05:11:41;44.35;;;23.92;;
56893;SDS011;43392;50.078;13.704;2023-02-11T05:14:08;43.78;;;24.23;;
56893;SDS011;43392;50.078;13.704;2023-02-11T05:16:35;47.45;;;22.92;;
56893;SDS011;43392;50.078;13.704;2023-02-11T05:19:02;46.72;;;23.45;;
56893;SDS011;43392;50.078;13.704;2023-02-11T05:21:29;48.63;;;24.83;;
56893;SDS011;43392;50.078;13.704;2023-02-11T05:23:56;48.88;;;25.90;;
56893;SDS011;43392;50.078;13.704;2023-02-11T05:26:23;48.28;;;25.48;;
56893;SDS011;43392;50.078;13.704;2023-02-11T05:28:49;47.17;;;24.83;;
56893;SDS011;43392;50.078;13.704;2023-02-11T05:31:16;40.50;;;21.98;;
56893;SDS011;43392;50.078;13.704;2023-02-11T05:33:43;47.65;;;22.65;;
56893;SDS011;43392;50.078;13.704;2023-02-11T05:36:11;44.25;;;23.50;;
56893;SDS011;43392;50.078;13.704;2023-02-11T05:38:39;45.97;;;24.08;;
56893;SDS011;43392;50.078;13.704;2023-02-11T05:41:07;45.97;;;24.17;;
56893;SDS011;43392;50.078;13.704;2023-02-11T05:43:34;40.78;;;22.52;;
56893;SDS011;43392;50.078;13.704;2023-02-11T05:46:01;46.67;;;22.95;;
56893;SDS011;43392;50.078;13.704;2023-02-11T05:48:29;45.63;;;23.50;;
56893;SDS011;43392;50.078;13.704;2023-02-11T05:50:56;42.60;;;23.58;;
56893;SDS011;43392;50.078;13.704;2023-02-11T05:53:24;43.65;;;22.58;;
56893;SDS011;43392;50.078;13.704;2023-02-11T05:55:50;45.90;;;23.25;;
56893;SDS011;43392;50.078;13.704;2023-02-11T05:58:17;45.17;;;24.50;;
56893;SDS011;43392;50.078;13.704;2023-02-11T06:00:43;44.55;;;23.42;;
56893;SDS011;43392;50.078;13.704;2023-02-11T06:03:10;40.70;;;22.70;;
56893;SDS011;43392;50.078;13.704;2023-02-11T06:05:36;42.10;;;22.80;;
56893;SDS011;43392;50.078;13.704;2023-02-11T06:08:03;42.80;;;23.63;;
56893;SDS011;43392;50.078;13.704;2023-02-11T06:10:31;45.38;;;24.45;;
56893;SDS011;43392;50.078;13.704;2023-02-11T06:12:58;44.72;;;22.50;;
56893;SDS011;43392;50.078;13.704;2023-02-11T06:15:24;42.85;;;22.60;;
56893;SDS011;43392;50.078;13.704;2023-02-11T06:17:51;46.05;;;24.60;;
56893;SDS011;43392;50.078;13.704;2023-02-11T06:20:18;46.03;;;23.67;;
56893;SDS011;43392;50.078;13.704;2023-02-11T06:22:45;45.58;;;24.55;;
56893;SDS011;43392;50.078;13.704;2023-02-11T06:25:11;44.80;;;24.60;;
56893;SDS011;43392;50.078;13.704;2023-02-11T06:27:42;43.30;;;22.40;;
56893;SDS011;43392;50.078;13.704;2023-02-11T06:30:09;48.33;;;23.17;;
56893;SDS011;43392;50.078;13.704;2023-02-11T06:32:36;46.10;;;22.52;;
56893;SDS011;43392;50.078;13.704;2023-02-11T06:35:03;43.53;;;22.10;;
56893;SDS011;43392;50.078;13.704;2023-02-11T06:37:29;39.20;;;22.23;;
56893;SDS011;43392;50.078;13.704;2023-02-11T06:39:56;43.53;;;22.23;;
56893;SDS011;43392;50.078;13.704;2023-02-11T06:42:22;42.38;;;21.35;;
56893;SDS011;43392;50.078;13.704;2023-02-11T06:44:50;48.10;;;21.67;;
56893;SDS011;43392;50.078;13.704;2023-02-11T06:47:17;41.53;;;21.70;;
56893;SDS011;43392;50.078;13.704;2023-02-11T06:49:44;41.80;;;22.45;;
56893;SDS011;43392;50.078;13.704;2023-02-11T06:52:11;40.17;;;21.70;;
56893;SDS011;43392;50.078;13.704;2023-02-11T06:54:37;44.65;;;22.58;;
56893;SDS011;43392;50.078;13.704;2023-02-11T06:57:04;44.78;;;21.85;;
56893;SDS011;43392;50.078;13.704;2023-02-11T06:59:30;40.95;;;22.08;;
56893;SDS011;43392;50.078;13.704;2023-02-11T07:01:58;44.80;;;23.15;;
56893;SDS011;43392;50.078;13.704;2023-02-11T07:04:25;40.15;;;22.80;;
56893;SDS011;43392;50.078;13.704;2023-02-11T07:06:51;47.13;;;23.33;;
56893;SDS011;43392;50.078;13.704;2023-02-11T07:09:18;44.90;;;23.98;;
56893;SDS011;43392;50.078;13.704;2023-02-11T07:11:45;42.20;;;23.10;;
56893;SDS011;43392;50.078;13.704;2023-02-11T07:14:11;43.22;;;24.88;;
56893;SDS011;43392;50.078;13.704;2023-02-11T07:16:38;42.80;;;24.45;;
56893;SDS011;43392;50.078;13.704;2023-02-11T07:19:06;48.63;;;26.10;;
56893;SDS011;43392;50.078;13.704;2023-02-11T07:21:32;50.78;;;28.27;;
56893;SDS011;43392;50.078;13.704;2023-02-11T07:24:00;51.20;;;27.35;;
56893;SDS011;43392;50.078;13.704;2023-02-11T07:26:27;53.58;;;26.08;;
56893;SDS011;43392;50.078;13.704;2023-02-11T07:28:54;40.15;;;20.90;;
56893;SDS011;43392;50.078;13.704;2023-02-11T07:31:21;39.22;;;21.50;;
56893;SDS011;43392;50.078;13.704;2023-02-11T07:33:50;45.00;;;23.58;;
56893;SDS011;43392;50.078;13.704;2023-02-11T07:36:19;38.90;;;22.10;;
56893;SDS011;43392;50.078;13.704;2023-02-11T07:38:46;42.50;;;22.98;;
56893;SDS011;43392;50.078;13.704;2023-02-11T07:41:13;44.15;;;24.00;;
56893;SDS011;43392;50.078;13.704;2023-02-11T07:43:41;43.40;;;22.90;;
56893;SDS011;43392;50.078;13.704;2023-02-11T07:46:09;44.25;;;24.02;;
56893;SDS011;43392;50.078;13.704;2023-02-11T07:48:38;42.23;;;21.40;;
56893;SDS011;43392;50.078;13.704;2023-02-11T07:51:06;37.40;;;21.45;;
56893;SDS011;43392;50.078;13.704;2023-02-11T07:53:35;41.30;;;22.55;;
56893;SDS011;43392;50.078;13.704;2023-02-11T07:56:02;42.90;;;23.42;;
56893;SDS011;43392;50.078;13.704;2023-02-11T07:58:29;40.15;;;21.67;;
56893;SDS011;43392;50.078;13.704;2023-02-11T08:00:59;38.88;;;23.10;;
56893;SDS011;43392;50.078;13.704;2023-02-11T08:03:26;40.60;;;22.45;;
56893;SDS011;43392;50.078;13.704;2023-02-11T08:05:53;40.08;;;21.90;;
56893;SDS011;43392;50.078;13.704;2023-02-11T08:08:19;39.92;;;22.90;;
56893;SDS011;43392;50.078;13.704;2023-02-11T08:10:47;38.47;;;21.52;;
56893;SDS011;43392;50.078;13.704;2023-02-11T08:13:14;43.22;;;22.15;;
56893;SDS011;43392;50.078;13.704;2023-02-11T08:15:40;35.92;;;20.58;;
56893;SDS011;43392;50.078;13.704;2023-02-11T08:18:07;45.45;;;22.98;;
56893;SDS011;43392;50.078;13.704;2023-02-11T08:20:33;39.75;;;22.25;;
56893;SDS011;43392;50.078;13.704;2023-02-11T08:23:00;36.15;;;20.60;;
56893;SDS011;43392;50.078;13.704;2023-02-11T08:25:27;39.22;;;20.98;;
56893;SDS011;43392;50.078;13.704;2023-02-11T08:27:55;38.65;;;20.52;;
56893;SDS011;43392;50.078;13.704;2023-02-11T08:30:21;39.08;;;21.08;;
56893;SDS011;43392;50.078;13.704;2023-02-11T08:32:49;43.22;;;22.10;;
56893;SDS011;43392;50.078;13.704;2023-02-11T08:35:16;38.58;;;20.75;;
56893;SDS011;43392;50.078;13.704;2023-02-11T08:37:42;38.17;;;22.00;;
56893;SDS011;43392;50.078;13.704;2023-02-11T08:40:09;39.90;;;21.48;;
56893;SDS011;43392;50.078;13.704;2023-02-11T08:42:36;39.17;;;22.08;;
56893;SDS011;43392;50.078;13.704;2023-02-11T08:45:04;37.92;;;21.08;;
56893;SDS011;43392;50.078;13.704;2023-02-11T08:47:32;39.85;;;21.40;;
56893;SDS011;43392;50.078;13.704;2023-02-11T08:49:58;31.73;;;18.10;;
56893;SDS011;43392;50.078;13.704;2023-02-11T08:52:25;39.72;;;22.85;;
56893;SDS011;43392;50.078;13.704;2023-02-11T08:54:51;36.90;;;21.00;;
56893;SDS011;43392;50.078;13.704;2023-02-11T08:57:18;41.22;;;21.27;;
56893;SDS011;43392;50.078;13.704;2023-02-11T08:59:45;36.47;;;19.85;;
56893;SDS011;43392;50.078;13.704;2023-02-11T09:02:13;40.42;;;22.35;;
56893;SDS011;43392;50.078;13.704;2023-02-11T09:04:40;39.85;;;20.75;;
56893;SDS011;43392;50.078;13.704;2023-02-11T09:07:06;41.40;;;21.65;;
56893;SDS011;43392;50.078;13.704;2023-02-11T09:09:33;40.40;;;21.33;;
56893;SDS011;43392;50.078;13.704;2023-02-11T09:12:00;43.60;;;22.65;;
56893;SDS011;43392;50.078;13.704;2023-02-11T09:14:26;52.03;;;29.60;;
56893;SDS011;43392;50.078;13.704;2023-02-11T09:16:53;49.78;;;25.05;;
56893;SDS011;43392;50.078;13.704;2023-02-11T09:19:22;42.85;;;25.17;;
56893;SDS011;43392;50.078;13.704;2023-02-11T09:21:49;40.50;;;22.08;;
56893;SDS011;43392;50.078;13.704;2023-02-11T09:24:15;43.97;;;22.00;;
56893;SDS011;43392;50.078;13.704;2023-02-11T09:26:42;40.67;;;22.75;;
56893;SDS011;43392;50.078;13.704;2023-02-11T09:29:09;43.38;;;22.90;;
56893;SDS011;43392;50.078;13.704;2023-02-11T09:31:35;41.90;;;22.52;;
56893;SDS011;43392;50.078;13.704;2023-02-11T09:34:02;41.88;;;23.38;;
56893;SDS011;43392;50.078;13.704;2023-02-11T09:36:32;40.28;;;23.40;;
56893;SDS011;43392;50.078;13.704;2023-02-11T09:41:34;46.22;;;24.90;;
56893;SDS011;43392;50.078;13.704;2023-02-11T09:44:07;42.83;;;23.40;;
56893;SDS011;43392;50.078;13.704;2023-02-11T09:46:42;43.28;;;23.80;;
56893;SDS011;43392;50.078;13.704;2023-02-11T09:49:16;42.08;;;24.20;;
56893;SDS011;43392;50.078;13.704;2023-02-11T09:51:48;42.75;;;23.92;;
56893;SDS011;43392;50.078;13.704;2023-02-11T09:54:22;51.35;;;26.70;;
56893;SDS011;43392;50.078;13.704;2023-02-11T09:56:54;47.63;;;24.70;;
56893;SDS011;43392;50.078;13.704;2023-02-11T09:59:20;54.05;;;27.42;;
56893;SDS011;43392;50.078;13.704;2023-02-11T10:01:49;57.30;;;31.00;;
56893;SDS011;43392;50.078;13.704;2023-02-11T10:04:21;64.03;;;33.63;;
56893;SDS011;43392;50.078;13.704;2023-02-11T10:07:05;68.28;;;35.38;;
56893;SDS011;43392;50.078;13.704;2023-02-11T10:09:42;43.17;;;22.70;;
56893;SDS011;43392;50.078;13.704;2023-02-11T10:12:25;43.30;;;22.42;;
56893;SDS011;43392;50.078;13.704;2023-02-11T10:15:11;38.75;;;20.20;;
56893;SDS011;43392;50.078;13.704;2023-02-11T10:17:44;33.90;;;19.15;;
56893;SDS011;43392;50.078;13.704;2023-02-11T10:20:24;33.75;;;19.02;;
56893;SDS011;43392;50.078;13.704;2023-02-11T10:22:58;35.90;;;18.05;;
56893;SDS011;43392;50.078;13.704;2023-02-11T10:25:27;36.10;;;18.48;;
56893;SDS011;43392;50.078;13.704;2023-02-11T10:28:00;34.58;;;18.48;;
56893;SDS011;43392;50.078;13.704;2023-02-11T10:30:36;33.40;;;17.05;;
56893;SDS011;43392;50.078;13.704;2023-02-11T10:35:37;32.25;;;17.42;;
56893;SDS011;43392;50.078;13.704;2023-02-11T10:38:06;31.60;;;17.95;;
56893;SDS011;43392;50.078;13.704;2023-02-11T10:40:33;31.15;;;17.88;;
56893;SDS011;43392;50.078;13.704;2023-02-11T10:43:01;30.45;;;17.25;;
56893;SDS011;43392;50.078;13.704;2023-02-11T10:45:31;32.90;;;16.37;;
56893;SDS011;43392;50.078;13.704;2023-02-11T10:48:00;31.13;;;16.10;;
56893;SDS011;43392;50.078;13.704;2023-02-11T10:50:30;30.70;;;16.45;;
56893;SDS011;43392;50.078;13.704;2023-02-11T10:53:15;31.25;;;17.30;;
56893;SDS011;43392;50.078;13.704;2023-02-11T10:55:48;28.02;;;15.93;;
56893;SDS011;43392;50.078;13.704;2023-02-11T10:58:21;29.33;;;16.23;;
56893;SDS011;43392;50.078;13.704;2023-02-11T11:00:51;33.70;;;17.35;;
56893;SDS011;43392;50.078;13.704;2023-02-11T11:03:20;28.67;;;15.82;;
56893;SDS011;43392;50.078;13.704;2023-02-11T11:05:50;31.95;;;16.48;;
56893;SDS011;43392;50.078;13.704;2023-02-11T11:08:19;28.05;;;15.82;;
56893;SDS011;43392;50.078;13.704;2023-02-11T11:10:46;25.75;;;15.05;;
56893;SDS011;43392;50.078;13.704;2023-02-11T11:16:19;29.17;;;16.45;;
56893;SDS011;43392;50.078;13.704;2023-02-11T11:18:49;28.77;;;16.55;;
56893;SDS011;43392;50.078;13.704;2023-02-11T11:21:17;30.35;;;17.27;;
56893;SDS011;43392;50.078;13.704;2023-02-11T11:23:53;27.93;;;16.10;;
56893;SDS011;43392;50.078;13.704;2023-02-11T11:26:22;28.20;;;15.95;;
56893;SDS011;43392;50.078;13.704;2023-02-11T11:28:52;30.08;;;16.48;;
56893;SDS011;43392;50.078;13.704;2023-02-11T11:31:22;29.58;;;15.45;;
56893;SDS011;43392;50.078;13.704;2023-02-11T11:33:51;30.83;;;16.33;;
56893;SDS011;43392;50.078;13.704;2023-02-11T11:36:21;28.02;;;15.23;;
56893;SDS011;43392;50.078;13.704;2023-02-11T11:38:57;29.50;;;16.15;;
56893;SDS011;43392;50.078;13.704;2023-02-11T11:41:27;28.23;;;15.95;;
56893;SDS011;43392;50.078;13.704;2023-02-11T11:43:56;28.40;;;16.77;;
56893;SDS011;43392;50.078;13.704;2023-02-11T11:46:28;31.95;;;17.92;;
56893;SDS011;43392;50.078;13.704;2023-02-11T11:48:59;28.38;;;16.58;;
56893;SDS011;43392;50.078;13.704;2023-02-11T11:51:32;28.33;;;17.30;;
56893;SDS011;43392;50.078;13.704;2023-02-11T11:54:02;28.67;;;16.67;;
56893;SDS011;43392;50.078;13.704;2023-02-11T11:56:32;30.45;;;17.05;;
56893;SDS011;43392;50.078;13.704;2023-02-11T11:59:08;29.90;;;17.05;;
56893;SDS011;43392;50.078;13.704;2023-02-11T12:01:38;29.17;;;17.05;;
56893;SDS011;43392;50.078;13.704;2023-02-11T12:04:19;30.83;;;16.75;;
56893;SDS011;43392;50.078;13.704;2023-02-11T12:06:59;32.10;;;17.58;;
56893;SDS011;43392;50.078;13.704;2023-02-11T12:09:38;33.47;;;19.85;;
56893;SDS011;43392;50.078;13.704;2023-02-11T12:12:21;34.10;;;18.92;;
56893;SDS011;43392;50.078;13.704;2023-02-11T12:14:58;34.20;;;20.10;;
56893;SDS011;43392;50.078;13.704;2023-02-11T12:17:39;34.00;;;19.75;;
56893;SDS011;43392;50.078;13.704;2023-02-11T12:20:22;34.58;;;19.30;;
56893;SDS011;43392;50.078;13.704;2023-02-11T12:23:00;30.15;;;16.73;;
56893;SDS011;43392;50.078;13.704;2023-02-11T12:25:47;30.70;;;18.58;;
56893;SDS011;43392;50.078;13.704;2023-02-11T12:28:23;30.77;;;19.02;;
56893;SDS011;43392;50.078;13.704;2023-02-11T12:31:04;32.33;;;18.55;;
56893;SDS011;43392;50.078;13.704;2023-02-11T12:33:47;30.83;;;17.75;;
56893;SDS011;43392;50.078;13.704;2023-02-11T12:36:28;35.53;;;19.50;;
56893;SDS011;43392;50.078;13.704;2023-02-11T12:39:08;29.38;;;16.95;;
56893;SDS011;43392;50.078;13.704;2023-02-11T12:41:47;29.85;;;17.30;;
56893;SDS011;43392;50.078;13.704;2023-02-11T12:44:49;26.35;;;14.93;;
56893;SDS011;43392;50.078;13.704;2023-02-11T12:47:31;31.75;;;17.15;;
56893;SDS011;43392;50.078;13.704;2023-02-11T12:50:09;31.48;;;18.13;;
56893;SDS011;43392;50.078;13.704;2023-02-11T12:52:49;32.45;;;18.98;;
56893;SDS011;43392;50.078;13.704;2023-02-11T12:55:28;28.13;;;15.85;;
56893;SDS011;43392;50.078;13.704;2023-02-11T12:58:02;32.03;;;18.23;;
56893;SDS011;43392;50.078;13.704;2023-02-11T13:00:34;32.13;;;18.40;;
56893;SDS011;43392;50.078;13.704;2023-02-11T13:03:10;36.53;;;20.90;;
56893;SDS011;43392;50.078;13.704;2023-02-11T13:05:42;36.83;;;20.77;;
56893;SDS011;43392;50.078;13.704;2023-02-11T13:08:12;35.63;;;21.20;;
56893;SDS011;43392;50.078;13.704;2023-02-11T13:10:45;34.08;;;19.85;;
56893;SDS011;43392;50.078;13.704;2023-02-11T13:13:16;32.75;;;19.80;;
56893;SDS011;43392;50.078;13.704;2023-02-11T13:15:47;36.90;;;19.88;;
56893;SDS011;43392;50.078;13.704;2023-02-11T13:21:20;34.67;;;20.15;;
56893;SDS011;43392;50.078;13.704;2023-02-11T13:23:55;32.65;;;18.52;;
56893;SDS011;43392;50.078;13.704;2023-02-11T13:26:30;37.92;;;19.63;;
56893;SDS011;43392;50.078;13.704;2023-02-11T13:29:09;33.92;;;20.08;;
56893;SDS011;43392;50.078;13.704;2023-02-11T13:31:51;29.30;;;16.58;;
56893;SDS011;43392;50.078;13.704;2023-02-11T13:34:25;33.50;;;18.45;;
56893;SDS011;43392;50.078;13.704;2023-02-11T13:37:17;32.30;;;17.98;;
56893;SDS011;43392;50.078;13.704;2023-02-11T13:39:54;33.22;;;18.15;;
56893;SDS011;43392;50.078;13.704;2023-02-11T13:42:22;31.45;;;18.50;;
56893;SDS011;43392;50.078;13.704;2023-02-11T13:44:50;34.20;;;19.60;;
56893;SDS011;43392;50.078;13.704;2023-02-11T13:47:21;32.70;;;19.35;;
56893;SDS011;43392;50.078;13.704;2023-02-11T13:49:53;33.83;;;20.05;;
56893;SDS011;43392;50.078;13.704;2023-02-11T13:52:21;33.42;;;19.23;;
56893;SDS011;43392;50.078;13.704;2023-02-11T13:54:51;34.25;;;18.40;;
56893;SDS011;43392;50.078;13.704;2023-02-11T13:57:30;30.60;;;18.20;;
56893;SDS011;43392;50.078;13.704;2023-02-11T14:03:22;31.65;;;17.92;;
56893;SDS011;43392;50.078;13.704;2023-02-11T14:06:09;35.42;;;19.08;;
56893;SDS011;43392;50.078;13.704;2023-02-11T14:08:59;31.38;;;18.63;;
56893;SDS011;43392;50.078;13.704;2023-02-11T14:11:41;31.75;;;18.88;;
56893;SDS011;43392;50.078;13.704;2023-02-11T14:14:14;29.40;;;18.77;;
56893;SDS011;43392;50.078;13.704;2023-02-11T14:19:47;27.45;;;15.98;;
56893;SDS011;43392;50.078;13.704;2023-02-11T14:22:15;28.05;;;16.67;;
56893;SDS011;43392;50.078;13.704;2023-02-11T14:24:46;27.35;;;16.67;;
56893;SDS011;43392;50.078;13.704;2023-02-11T14:27:17;29.17;;;18.23;;
56893;SDS011;43392;50.078;13.704;2023-02-11T14:29:51;28.50;;;17.42;;
56893;SDS011;43392;50.078;13.704;2023-02-11T14:32:42;33.10;;;17.48;;
56893;SDS011;43392;50.078;13.704;2023-02-11T14:35:22;32.90;;;18.45;;
56893;SDS011;43392;50.078;13.704;2023-02-11T14:37:57;31.55;;;17.15;;
56893;SDS011;43392;50.078;13.704;2023-02-11T14:40:30;29.17;;;17.00;;
56893;SDS011;43392;50.078;13.704;2023-02-11T14:43:02;29.03;;;17.00;;
56893;SDS011;43392;50.078;13.704;2023-02-11T14:45:37;29.02;;;14.80;;
56893;SDS011;43392;50.078;13.704;2023-02-11T14:48:05;27.27;;;15.48;;
56893;SDS011;43392;50.078;13.704;2023-02-11T14:50:40;27.38;;;14.63;;
56893;SDS011;43392;50.078;13.704;2023-02-11T14:53:12;25.48;;;14.75;;